Airfield :
LOGIN :

Register | Disclaimer

   EN    FR    IT 

 










Legend :    VFR   Marginal VFR   IFR   Intensive IFR   Very Intensive IFR
Visi :
Ceiling :
>= 8 km
>= 3000ft
5 to 8 km
1000 to 3000 ft
1500m to 5 km
500 to 1000 ft
800 to 1500m
200 to 500 ft
< 800m
< 200 ft
Symbols :   Thunderstorms  Fog  Heavy snow  Heavy precipitations  Wind > 20 kt
SIGMETs :     Misc.  Thunderstorms  Icing  Turbulence  Mountain Waves  Volcanic Ashes







- Airport Elevation : 412 ft
- IATA code : ORE
- Download approach charts


LFOJ - Orleans

CURRENT METAR :
  • 160630Z AUTO 22006KT 9999 OVC031 14/12 Q1021 NOSIG

EXPIRED METARs :
  • 160600Z AUTO 22007KT 9999 OVC031 14/11 Q1021
  • 160530Z AUTO 22008KT 9999 OVC032 13/11 Q1021
  • 160500Z AUTO 21010KT 9999 OVC035 13/11 Q1021
  • 160430Z AUTO 21008KT 9999 BKN028 OVC033 12/11 Q1021
  • 160400Z AUTO 22007KT 9999 BKN027 12/11 Q1021

TAF AMD TAF LFOJ
Valid from the 16 at 06:00 until the 17 at 03:00 UTC


160600Z 1606/1703 22008KT 9999 BKN030
No reported NOTAMs for that airfield.



MET'MAP, your aeronautical weather chart ! - Copyright ORBIFLY December 2007 - Disclaimer

ORBIFLY MET'MAP TEAM :

Programming & Development : Alexandra Zaïnal
Concept & Development : Baudouin d'Aumeries
Co-Development & Prog : Marc-Olivier Méhu
Technical & hardware support : Manuel Goepfert

Contact : metmap@orbifly.com




SOURCES & CREDITS :

   NOAA